Time;durP1;ratioP1;P1;durP2;ratioP2;P2;SDS_P1;SDS_P2;PMS_P1;PMS_P2;Temp;Humidity;BMP_temperature;BMP_pressure;BME280_temperature;BME280_humidity;BME280_pressure;Samples;Min_cycle;Max_cycle;Signal;HPM_P1;HPM_P2
2022/03/06 00:02:15;;;;;;;23.02;13.65;;;-0.40;99.90;;;;;;5008615;28;20057;-85
2022/03/06 00:04:40;;;;;;;24.75;15.15;;;-0.40;99.90;;;;;;5008353;28;20406;-85
2022/03/06 00:07:06;;;;;;;22.10;13.38;;;-0.40;99.90;;;;;;4990165;28;20038;-86
2022/03/06 00:09:31;;;;;;;21.52;12.80;;;-0.40;99.90;;;;;;5008402;28;20537;-85
2022/03/06 00:11:57;;;;;;;24.92;14.65;;;-0.40;99.90;;;;;;5007870;28;20053;-85
2022/03/06 00:14:23;;;;;;;23.58;14.45;;;-0.40;99.90;;;;;;5008201;28;20064;-85
2022/03/06 00:16:51;;;;;;;23.23;13.75;;;-0.40;99.90;;;;;;4992796;28;20046;-86
2022/03/06 00:19:17;;;;;;;23.50;14.50;;;-0.50;99.90;;;;;;4998690;28;20398;-85
2022/03/06 00:21:43;;;;;;;23.73;13.95;;;-0.40;99.90;;;;;;5009706;28;20041;-85
2022/03/06 00:24:09;;;;;;;26.23;15.07;;;-0.50;99.90;;;;;;4999936;28;20046;-85
2022/03/06 00:26:35;;;;;;;33.28;14.98;;;-0.50;99.90;;;;;;4989127;28;20488;-85
2022/03/06 00:29:00;;;;;;;25.33;14.52;;;-0.50;99.90;;;;;;4994574;28;20049;-85
2022/03/06 00:31:26;;;;;;;24.00;13.57;;;-0.50;99.90;;;;;;5007840;28;20222;-84
2022/03/06 00:33:52;;;;;;;23.20;13.32;;;-0.50;99.90;;;;;;4986872;28;20129;-85
2022/03/06 00:36:18;;;;;;;24.40;13.27;;;-0.50;99.90;;;;;;4997159;28;20060;-85
2022/03/06 00:38:45;;;;;;;23.13;14.32;;;-0.50;99.90;;;;;;5008625;28;20112;-85
2022/03/06 00:41:14;;;;;;;24.42;14.68;;;-0.60;99.90;;;;;;5008913;28;20072;-84
2022/03/06 00:43:40;;;;;;;23.20;14.70;;;-0.60;99.90;;;;;;5006619;28;20405;-85
2022/03/06 00:46:06;;;;;;;26.70;15.88;;;-0.60;99.90;;;;;;5008944;28;20050;-85
2022/03/06 00:48:32;;;;;;;26.90;14.90;;;-0.50;99.90;;;;;;4986230;28;20132;-85
2022/03/06 00:50:58;;;;;;;23.88;14.82;;;-0.50;99.90;;;;;;5008461;28;20402;-85
2022/03/06 00:53:24;;;;;;;23.40;14.93;;;-0.50;99.90;;;;;;5016378;28;20077;-85
2022/03/06 00:55:50;;;;;;;24.58;14.32;;;-0.50;99.90;;;;;;5013721;28;20034;-85
2022/03/06 00:58:15;;;;;;;23.60;15.05;;;-0.40;99.90;;;;;;5007560;28;20062;-84
2022/03/06 01:00:43;;;;;;;24.27;14.40;;;-0.40;99.90;;;;;;4992157;28;20202;-85
2022/03/06 01:03:12;;;;;;;22.98;14.20;;;-0.40;99.90;;;;;;5004447;28;20054;-86
2022/03/06 01:05:38;;;;;;;25.15;14.43;;;-0.40;99.90;;;;;;5013162;28;20030;-85
2022/03/06 01:08:05;;;;;;;21.63;14.00;;;-0.40;99.90;;;;;;5013469;28;20053;-85
2022/03/06 01:10:31;;;;;;;22.42;14.32;;;-0.40;99.90;;;;;;4994278;28;20407;-85
2022/03/06 01:12:57;;;;;;;23.25;14.88;;;-0.40;99.90;;;;;;4991643;28;20090;-85
2022/03/06 01:15:23;;;;;;;22.35;13.48;;;-0.40;99.90;;;;;;4992804;28;20533;-85
2022/03/06 01:17:49;;;;;;;25.95;14.35;;;-0.40;99.90;;;;;;5011682;28;20050;-85
2022/03/06 01:20:17;;;;;;;22.60;14.02;;;-0.40;99.90;;;;;;4986641;28;20487;-85
2022/03/06 01:22:43;;;;;;;24.27;14.75;;;-0.40;99.90;;;;;;5011139;28;20057;-85
2022/03/06 01:25:09;;;;;;;21.70;13.23;;;-0.40;99.90;;;;;;4994531;28;20034;-85
2022/03/06 01:27:34;;;;;;;25.58;14.05;;;-0.40;99.90;;;;;;5010535;28;20107;-85
2022/03/06 01:30:00;;;;;;;22.75;15.43;;;-0.40;99.90;;;;;;5003889;28;20442;-85
2022/03/06 01:32:26;;;;;;;24.10;13.98;;;-0.40;99.90;;;;;;5012386;28;20152;-84
2022/03/06 01:34:52;;;;;;;24.17;13.82;;;-0.30;99.90;;;;;;4985166;28;20045;-84
2022/03/06 01:37:17;;;;;;;22.80;14.15;;;-0.30;99.90;;;;;;4975322;28;20046;-84
2022/03/06 01:39:43;;;;;;;23.13;13.75;;;-0.30;99.90;;;;;;5006352;28;20057;-84
2022/03/06 01:42:08;;;;;;;20.25;13.93;;;-0.30;99.90;;;;;;4994781;28;20042;-84
2022/03/06 01:44:34;;;;;;;25.92;14.88;;;-0.30;99.90;;;;;;5006511;28;20092;-85
2022/03/06 01:46:59;;;;;;;25.23;14.85;;;-0.20;99.90;;;;;;4991727;28;20077;-85
2022/03/06 01:49:25;;;;;;;26.60;14.93;;;-0.20;99.90;;;;;;4993730;28;20660;-85
2022/03/06 01:51:51;;;;;;;25.13;14.77;;;-0.20;99.90;;;;;;5011140;28;20342;-84
2022/03/06 01:54:16;;;;;;;25.42;15.32;;;-0.20;99.90;;;;;;4991502;28;20050;-86
2022/03/06 01:56:42;;;;;;;23.88;14.43;;;-0.20;99.90;;;;;;5009424;28;20127;-85
2022/03/06 01:59:11;;;;;;;22.00;14.50;;;-0.10;99.90;;;;;;4982892;28;20038;-84
2022/03/06 02:01:37;;;;;;;22.30;13.80;;;-0.10;99.90;;;;;;5011815;28;20502;-85
2022/03/06 02:04:03;;;;;;;21.50;12.95;;;-0.10;99.90;;;;;;5029501;28;20052;-85
2022/03/06 02:06:28;;;;;;;20.20;11.88;;;-0.10;99.90;;;;;;5009787;28;20486;-85
2022/03/06 02:08:54;;;;;;;23.58;13.68;;;0.00;99.90;;;;;;5012654;28;20064;-84
2022/03/06 02:11:22;;;;;;;20.27;12.63;;;0.00;99.90;;;;;;5009941;28;20107;-84
2022/03/06 02:13:48;;;;;;;20.13;12.70;;;0.10;99.90;;;;;;4984923;28;20120;-85
2022/03/06 02:16:14;;;;;;;21.92;12.48;;;0.10;99.90;;;;;;5009973;28;20558;-86
2022/03/06 02:18:39;;;;;;;20.23;12.55;;;0.10;99.90;;;;;;5013507;28;20107;-85
2022/03/06 02:21:13;;;;;;;20.42;12.55;;;0.20;99.90;;;;;;5027207;28;20128;-85
2022/03/06 02:23:39;;;;;;;22.75;12.40;;;0.20;99.90;;;;;;4996438;28;20062;-85
2022/03/06 02:26:06;;;;;;;20.40;12.85;;;0.30;99.90;;;;;;5019917;28;20042;-85
2022/03/06 02:28:32;;;;;;;18.02;11.45;;;0.30;99.90;;;;;;5006620;28;20046;-85
2022/03/06 02:30:58;;;;;;;20.73;11.57;;;0.30;99.90;;;;;;5003021;28;20048;-85
2022/03/06 02:33:24;;;;;;;20.48;12.40;;;0.30;99.90;;;;;;5013664;28;20052;-85
2022/03/06 02:35:50;;;;;;;16.20;10.75;;;0.30;99.90;;;;;;5008453;28;20045;-85
2022/03/06 02:38:15;;;;;;;18.20;11.35;;;0.40;99.90;;;;;;5012887;28;20053;-85
2022/03/06 02:40:44;;;;;;;17.63;10.68;;;0.40;99.90;;;;;;5012086;28;20041;-84
2022/03/06 02:43:15;;;;;;;20.13;11.35;;;0.40;99.90;;;;;;5012844;28;20037;-85
2022/03/06 02:45:40;;;;;;;18.30;11.40;;;0.40;99.90;;;;;;4990699;28;20053;-85
2022/03/06 02:48:08;;;;;;;16.77;10.20;;;0.40;99.90;;;;;;5011259;28;20048;-84
2022/03/06 02:50:36;;;;;;;18.17;11.45;;;0.40;99.90;;;;;;4992142;28;20193;-85
2022/03/06 02:53:05;;;;;;;17.27;10.93;;;0.40;99.90;;;;;;5012868;28;20421;-84
2022/03/06 02:55:31;;;;;;;18.75;10.80;;;0.40;99.90;;;;;;4994472;28;20045;-86
2022/03/06 02:57:57;;;;;;;20.02;11.18;;;0.40;99.90;;;;;;4996354;28;20049;-85
2022/03/06 03:00:25;;;;;;;18.70;11.80;;;0.30;99.90;;;;;;5014218;28;20132;-86
2022/03/06 03:02:51;;;;;;;17.02;10.98;;;0.30;99.90;;;;;;5030797;28;20118;-85
2022/03/06 03:05:19;;;;;;;21.63;11.65;;;0.40;99.90;;;;;;4989733;28;20033;-85
2022/03/06 03:07:48;;;;;;;16.98;11.13;;;0.30;99.90;;;;;;4995790;28;20045;-85
2022/03/06 03:10:20;;;;;;;17.45;11.45;;;0.30;99.90;;;;;;5007615;28;20049;-85
2022/03/06 03:12:45;;;;;;;19.13;11.32;;;0.30;99.90;;;;;;4996447;28;20049;-86
2022/03/06 03:15:11;;;;;;;19.58;11.38;;;0.20;99.90;;;;;;5018579;28;20037;-85
2022/03/06 03:17:37;;;;;;;16.55;11.02;;;0.20;99.90;;;;;;5038159;28;20080;-85
2022/03/06 03:20:04;;;;;;;16.77;10.10;;;0.10;99.90;;;;;;5019511;28;20033;-86
2022/03/06 03:22:30;;;;;;;16.85;10.57;;;0.00;99.90;;;;;;5015132;28;20132;-86
2022/03/06 03:24:55;;;;;;;17.27;11.00;;;0.00;99.90;;;;;;5001748;28;20184;-86
2022/03/06 03:27:21;;;;;;;16.70;10.55;;;-0.10;99.90;;;;;;4992985;28;20049;-85
2022/03/06 03:29:47;;;;;;;15.77;10.07;;;-0.20;99.90;;;;;;4976395;28;20037;-85
2022/03/06 03:32:12;;;;;;;17.60;10.65;;;-0.20;99.90;;;;;;4995159;28;20479;-85
2022/03/06 03:34:38;;;;;;;19.20;11.63;;;-0.30;99.90;;;;;;4982507;28;20521;-84
2022/03/06 03:37:03;;;;;;;18.33;10.95;;;-0.30;99.90;;;;;;5010191;28;20045;-85
2022/03/06 03:39:29;;;;;;;15.68;10.57;;;-0.40;99.90;;;;;;4996338;28;20072;-85
2022/03/06 03:41:54;;;;;;;19.23;11.30;;;-0.40;99.90;;;;;;4993976;28;20128;-85
2022/03/06 03:44:20;;;;;;;18.85;11.50;;;-0.50;99.90;;;;;;4987548;28;20100;-85
2022/03/06 03:46:46;;;;;;;17.15;10.65;;;-0.50;99.90;;;;;;5004201;28;20042;-85
2022/03/06 03:49:14;;;;;;;18.85;11.35;;;-0.50;99.90;;;;;;5011665;28;20060;-85
2022/03/06 03:51:40;;;;;;;18.20;10.80;;;-0.50;99.90;;;;;;5009285;28;20128;-85
2022/03/06 03:54:06;;;;;;;16.48;10.23;;;-0.60;99.90;;;;;;5011296;28;20045;-86
2022/03/06 03:56:34;;;;;;;16.77;11.63;;;-0.60;99.90;;;;;;5011217;28;20440;-85
2022/03/06 03:59:00;;;;;;;17.27;10.75;;;-0.60;99.90;;;;;;5011200;28;20045;-83
2022/03/06 04:01:25;;;;;;;19.38;10.95;;;-0.60;99.90;;;;;;4987054;28;20418;-85
2022/03/06 04:03:51;;;;;;;17.75;11.57;;;-0.60;99.90;;;;;;4992041;28;20056;-85
2022/03/06 04:06:17;;;;;;;18.38;10.30;;;-0.60;99.90;;;;;;5009601;28;20037;-85
2022/03/06 04:08:42;;;;;;;16.63;11.35;;;-0.70;99.90;;;;;;5007676;28;20049;-85
2022/03/06 04:11:08;;;;;;;16.40;10.15;;;-0.70;99.90;;;;;;4980473;28;20069;-85
2022/03/06 04:13:34;;;;;;;16.92;10.98;;;-0.70;99.90;;;;;;5011133;28;20630;-85
2022/03/06 04:15:59;;;;;;;17.08;10.25;;;-0.80;99.90;;;;;;5008414;28;20094;-85
2022/03/06 04:18:25;;;;;;;16.45;10.32;;;-0.80;99.90;;;;;;4993081;28;20486;-85
2022/03/06 04:20:51;;;;;;;14.98;10.52;;;-0.80;99.90;;;;;;5008742;28;20057;-85
2022/03/06 04:23:16;;;;;;;16.52;10.27;;;-0.80;99.90;;;;;;5011356;28;20517;-84
2022/03/06 04:25:42;;;;;;;21.17;11.27;;;-0.90;99.90;;;;;;5029377;28;20042;-85
2022/03/06 04:28:08;;;;;;;16.70;10.82;;;-0.90;99.90;;;;;;5010716;28;20053;-85
2022/03/06 04:30:33;;;;;;;16.83;11.68;;;-0.90;99.90;;;;;;4995495;28;20045;-84
2022/03/06 04:32:59;;;;;;;17.20;11.05;;;-0.80;99.90;;;;;;5010133;28;20046;-85
2022/03/06 04:35:24;;;;;;;17.40;11.65;;;-0.80;99.90;;;;;;4992370;28;20198;-84
2022/03/06 04:37:50;;;;;;;18.00;11.43;;;-0.70;99.90;;;;;;5009586;28;20292;-86
2022/03/06 04:40:16;;;;;;;18.42;11.63;;;-0.70;99.90;;;;;;4994290;28;20041;-86
2022/03/06 04:42:42;;;;;;;17.13;11.02;;;-0.70;99.90;;;;;;5018532;28;20049;-85
2022/03/06 04:45:09;;;;;;;17.80;11.90;;;-0.60;99.90;;;;;;4994291;28;20494;-84
2022/03/06 04:47:35;;;;;;;17.15;10.82;;;-0.60;99.90;;;;;;5004831;28;20049;-85
2022/03/06 04:50:01;;;;;;;18.02;11.15;;;-0.50;99.90;;;;;;5025880;28;20101;-85
2022/03/06 04:52:26;;;;;;;16.02;10.48;;;-0.60;99.90;;;;;;5027992;28;20033;-85
2022/03/06 04:54:52;;;;;;;16.38;10.27;;;-0.60;99.90;;;;;;5017795;28;20124;-85
2022/03/06 04:57:17;;;;;;;15.20;9.95;;;-0.60;99.90;;;;;;5001194;28;20052;-85
2022/03/06 04:59:43;;;;;;;19.23;11.23;;;-0.60;99.90;;;;;;5016466;28;20124;-85
2022/03/06 05:02:09;;;;;;;18.45;10.85;;;-0.60;99.90;;;;;;4998905;28;20301;-85
2022/03/06 05:04:34;;;;;;;17.00;10.02;;;-0.50;99.90;;;;;;5023504;28;20153;-85
2022/03/06 05:07:00;;;;;;;15.65;10.02;;;-0.50;99.90;;;;;;5010613;28;20343;-85
2022/03/06 05:09:26;;;;;;;16.88;10.40;;;-0.50;99.90;;;;;;4994744;28;20076;-85
2022/03/06 05:11:52;;;;;;;16.08;9.95;;;-0.50;99.90;;;;;;5005772;28;20113;-85
2022/03/06 05:14:18;;;;;;;16.50;9.80;;;-0.50;99.90;;;;;;4982537;28;20509;-85
2022/03/06 05:16:43;;;;;;;16.65;9.35;;;-0.50;99.90;;;;;;4994712;28;20049;-85
2022/03/06 05:19:09;;;;;;;15.27;9.32;;;-0.50;99.90;;;;;;5010074;28;20417;-84
2022/03/06 05:21:36;;;;;;;14.52;9.45;;;-0.50;99.90;;;;;;5013804;28;20045;-84
2022/03/06 05:24:01;;;;;;;15.68;8.45;;;-0.50;99.90;;;;;;5023769;28;20444;-85
2022/03/06 05:26:27;;;;;;;15.57;9.20;;;-0.60;99.90;;;;;;4977233;28;20080;-86
2022/03/06 05:28:52;;;;;;;15.70;8.00;;;-0.50;99.90;;;;;;4992918;28;20523;-85
2022/03/06 05:31:19;;;;;;;13.40;7.88;;;-0.60;99.90;;;;;;5011445;28;20088;-85
2022/03/06 05:33:44;;;;;;;14.52;8.80;;;-0.60;99.90;;;;;;5026227;28;20053;-85
2022/03/06 05:36:10;;;;;;;11.63;7.80;;;-0.60;99.90;;;;;;5034635;28;20046;-85
2022/03/06 05:38:36;;;;;;;14.23;7.75;;;-0.70;99.90;;;;;;4987934;28;20398;-87
2022/03/06 05:41:02;;;;;;;15.35;8.20;;;-0.70;99.90;;;;;;5018046;28;20047;-86
2022/03/06 05:43:28;;;;;;;12.95;7.68;;;-0.70;99.90;;;;;;5021404;28;20045;-85
2022/03/06 05:45:54;;;;;;;14.38;8.07;;;-0.80;99.90;;;;;;5016241;28;20533;-86
2022/03/06 05:48:20;;;;;;;13.43;7.53;;;-0.70;99.90;;;;;;5033344;28;20493;-85
2022/03/06 05:50:45;;;;;;;13.32;7.53;;;-0.80;99.90;;;;;;5006482;28;20045;-86
2022/03/06 05:53:11;;;;;;;12.43;7.63;;;-0.80;99.90;;;;;;5022851;28;20383;-85
2022/03/06 05:55:37;;;;;;;13.90;7.32;;;-0.70;99.90;;;;;;5031220;28;20390;-84
2022/03/06 05:58:02;;;;;;;13.57;7.60;;;-0.70;99.90;;;;;;4998562;28;20048;-85
2022/03/06 06:00:28;;;;;;;13.02;7.43;;;-0.70;99.90;;;;;;5006650;28;20081;-89
2022/03/06 06:02:55;;;;;;;12.77;6.97;;;-0.70;99.90;;;;;;5029270;28;20054;-88
2022/03/06 06:05:22;;;;;;;12.90;7.70;;;-0.70;99.90;;;;;;5007472;28;20120;-89
2022/03/06 06:07:48;;;;;;;12.93;7.15;;;-0.80;99.90;;;;;;5008642;28;20444;-87
2022/03/06 06:10:14;;;;;;;12.15;7.32;;;-0.80;99.90;;;;;;5008389;28;20114;-87
2022/03/06 06:12:39;;;;;;;13.68;8.70;;;-0.70;99.90;;;;;;4997497;28;20125;-87
2022/03/06 06:15:05;;;;;;;13.93;7.72;;;-0.70;99.90;;;;;;5001240;28;20041;-87
2022/03/06 06:17:31;;;;;;;11.75;6.95;;;-0.60;99.90;;;;;;5010058;28;20037;-86
2022/03/06 06:19:57;;;;;;;11.20;7.00;;;-0.60;99.90;;;;;;4989095;28;20147;-86
2022/03/06 06:22:22;;;;;;;13.93;7.93;;;-0.60;99.90;;;;;;5011161;28;20099;-86
2022/03/06 06:24:48;;;;;;;12.82;7.57;;;-0.50;99.90;;;;;;5011155;28;20053;-88
2022/03/06 06:27:13;;;;;;;12.80;7.65;;;-0.50;99.90;;;;;;5006439;28;20057;-86
2022/03/06 06:29:39;;;;;;;11.20;6.18;;;-0.50;99.90;;;;;;5012552;28;20047;-85
2022/03/06 06:32:05;;;;;;;14.13;6.38;;;-0.50;99.90;;;;;;4990569;28;20044;-86
2022/03/06 06:34:31;;;;;;;15.20;7.35;;;-0.50;99.90;;;;;;5008465;28;20390;-88
2022/03/06 06:36:58;;;;;;;11.23;7.50;;;-0.50;99.90;;;;;;4995990;28;20125;-87
2022/03/06 06:39:25;;;;;;;12.20;7.55;;;-0.40;99.90;;;;;;5004926;28;20057;-85
2022/03/06 06:41:51;;;;;;;13.43;7.18;;;-0.40;99.90;;;;;;5025554;28;20041;-86
2022/03/06 06:44:17;;;;;;;12.75;6.90;;;-0.40;99.90;;;;;;4998076;28;20042;-86
2022/03/06 06:46:43;;;;;;;16.77;8.10;;;-0.30;99.90;;;;;;5006167;28;20037;-86
2022/03/06 06:49:10;;;;;;;14.13;6.97;;;-0.10;99.90;;;;;;5003112;28;20045;-87
2022/03/06 06:51:38;;;;;;;12.32;6.38;;;-0.10;99.90;;;;;;5017636;28;20163;-86
2022/03/06 06:54:04;;;;;;;12.68;6.57;;;0.00;99.90;;;;;;5022834;28;20510;-86
2022/03/06 06:56:29;;;;;;;13.38;5.65;;;0.10;99.90;;;;;;5021336;28;20088;-86
2022/03/06 06:58:55;;;;;;;10.85;5.45;;;0.20;99.90;;;;;;4988187;28;20880;-85
2022/03/06 07:01:20;;;;;;;10.93;5.72;;;0.30;99.90;;;;;;5009931;28;20397;-86
2022/03/06 07:03:46;;;;;;;12.65;6.13;;;0.30;99.90;;;;;;5009619;28;20513;-85
2022/03/06 07:06:12;;;;;;;11.60;6.22;;;0.40;99.90;;;;;;5009910;28;20391;-85
2022/03/06 07:08:38;;;;;;;11.43;5.45;;;0.50;99.90;;;;;;5000133;28;20049;-86
2022/03/06 07:11:03;;;;;;;11.00;5.38;;;0.50;99.90;;;;;;5029850;28;20041;-86
2022/03/06 07:13:29;;;;;;;11.88;5.15;;;0.60;99.90;;;;;;4996533;28;20535;-86
2022/03/06 07:15:54;;;;;;;10.68;5.70;;;0.60;99.90;;;;;;5006249;28;20223;-86
2022/03/06 07:18:20;;;;;;;11.35;5.38;;;0.70;99.90;;;;;;4985831;28;20124;-86
2022/03/06 07:20:45;;;;;;;10.15;5.22;;;0.70;99.90;;;;;;5000399;28;20082;-85
2022/03/06 07:23:11;;;;;;;9.93;4.93;;;0.70;99.90;;;;;;4995579;28;20056;-87
2022/03/06 07:25:37;;;;;;;9.13;5.05;;;0.80;99.90;;;;;;5011363;28;20171;-87
2022/03/06 07:28:02;;;;;;;9.82;5.18;;;0.80;99.90;;;;;;5003730;28;20042;-86
2022/03/06 07:30:28;;;;;;;10.52;5.25;;;0.80;99.90;;;;;;4994663;28;20068;-87
2022/03/06 07:32:54;;;;;;;11.40;5.22;;;0.80;99.90;;;;;;5007690;28;20417;-86
2022/03/06 07:35:21;;;;;;;9.73;5.28;;;0.80;99.90;;;;;;5002133;28;20092;-84
2022/03/06 07:37:47;;;;;;;9.30;4.68;;;0.80;99.90;;;;;;5002608;28;20045;-87
2022/03/06 07:40:15;;;;;;;10.05;5.15;;;0.80;99.90;;;;;;4992894;28;20081;-87
2022/03/06 07:42:41;;;;;;;8.68;4.88;;;0.80;99.90;;;;;;4988436;28;20409;-86
2022/03/06 07:45:07;;;;;;;9.48;4.50;;;0.80;99.90;;;;;;5022332;28;20075;-87
2022/03/06 07:47:33;;;;;;;9.02;4.53;;;0.80;99.90;;;;;;5022363;28;20041;-88
2022/03/06 07:49:58;;;;;;;8.95;5.00;;;0.80;99.90;;;;;;5017463;28;20049;-87
2022/03/06 07:52:24;;;;;;;11.32;4.57;;;0.80;99.90;;;;;;5005637;28;20305;-87
2022/03/06 07:54:50;;;;;;;8.60;4.13;;;0.90;99.90;;;;;;5024844;28;20049;-87
2022/03/06 07:57:15;;;;;;;10.55;4.65;;;0.90;99.90;;;;;;5007813;28;20045;-88
2022/03/06 07:59:41;;;;;;;9.68;4.68;;;1.10;99.90;;;;;;5013768;28;20037;-87
2022/03/06 08:02:07;;;;;;;9.30;3.90;;;1.10;99.90;;;;;;5027356;28;20064;-88
2022/03/06 08:04:32;;;;;;;9.27;4.40;;;1.20;99.90;;;;;;5013322;28;20082;-88
2022/03/06 08:06:58;;;;;;;8.82;4.40;;;1.20;99.90;;;;;;5030706;28;20021;-88
2022/03/06 08:09:26;;;;;;;10.30;4.15;;;1.30;99.90;;;;;;5018865;28;20486;-86
2022/03/06 08:11:52;;;;;;;9.60;4.30;;;1.40;99.90;;;;;;4989812;28;20045;-88
2022/03/06 08:14:18;;;;;;;9.07;3.88;;;1.40;99.90;;;;;;5023627;28;20486;-87
2022/03/06 08:16:43;;;;;;;6.60;3.50;;;1.50;99.90;;;;;;5005366;28;20100;-88
2022/03/06 08:19:09;;;;;;;7.68;3.90;;;1.60;99.90;;;;;;5002390;28;20045;-89
2022/03/06 08:21:35;;;;;;;7.20;3.65;;;1.70;99.90;;;;;;4980661;28;20030;-88
2022/03/06 08:24:00;;;;;;;7.82;3.72;;;1.70;99.90;;;;;;4991960;28;20049;-89
2022/03/06 08:26:26;;;;;;;9.88;4.28;;;1.80;99.90;;;;;;5003073;28;20038;-87
2022/03/06 08:28:52;;;;;;;9.30;4.03;;;1.90;99.90;;;;;;4999672;28;20061;-88
2022/03/06 08:31:18;;;;;;;7.35;3.35;;;2.00;99.90;;;;;;5007448;28;20120;-87
2022/03/06 08:33:44;;;;;;;7.38;3.47;;;2.00;99.90;;;;;;4994545;28;20042;-88
2022/03/06 08:36:10;;;;;;;9.07;4.10;;;2.10;99.90;;;;;;4994822;28;20114;-87
2022/03/06 08:38:36;;;;;;;6.68;3.50;;;2.20;99.90;;;;;;4990128;28;20054;-88
2022/03/06 08:41:02;;;;;;;8.00;4.00;;;2.20;99.90;;;;;;5011491;28;20128;-88
2022/03/06 08:43:27;;;;;;;6.97;3.80;;;2.30;99.90;;;;;;5000038;28;20133;-90
2022/03/06 08:45:53;;;;;;;10.35;3.92;;;2.30;99.90;;;;;;5018867;28;20053;-88
2022/03/06 08:48:21;;;;;;;8.60;3.70;;;2.40;99.90;;;;;;5022292;28;20029;-88
2022/03/06 08:50:47;;;;;;;7.57;4.13;;;2.50;99.90;;;;;;5021411;28;20062;-88
2022/03/06 08:53:12;;;;;;;6.47;3.60;;;2.50;99.90;;;;;;5023964;28;20042;-88
2022/03/06 08:55:38;;;;;;;8.52;4.00;;;2.60;99.90;;;;;;5004922;28;20132;-87
2022/03/06 08:58:03;;;;;;;8.02;3.90;;;2.60;99.90;;;;;;4986247;28;20084;-89
2022/03/06 09:00:29;;;;;;;7.75;3.85;;;2.60;99.90;;;;;;4987820;28;20069;-89
2022/03/06 09:02:54;;;;;;;6.93;3.65;;;2.70;99.90;;;;;;4975739;28;20054;-89
2022/03/06 09:05:20;;;;;;;7.65;4.28;;;2.70;99.90;;;;;;4987245;28;20045;-88
2022/03/06 09:07:46;;;;;;;7.68;3.78;;;2.80;99.90;;;;;;4987250;28;20180;-90
2022/03/06 09:10:12;;;;;;;7.82;3.90;;;2.80;99.90;;;;;;5007568;28;20034;-91
2022/03/06 09:12:38;;;;;;;7.85;4.10;;;2.90;99.90;;;;;;4992299;28;20069;-89
2022/03/06 09:15:05;;;;;;;8.13;4.00;;;2.90;99.90;;;;;;5007654;28;20042;-89
2022/03/06 09:17:30;;;;;;;10.45;4.40;;;3.00;99.90;;;;;;4969759;28;20093;-90
2022/03/06 09:19:56;;;;;;;7.82;3.80;;;3.00;99.90;;;;;;4962163;28;20495;-88
2022/03/06 09:22:22;;;;;;;6.57;4.03;;;3.10;99.90;;;;;;4991310;28;20411;-89
2022/03/06 09:24:47;;;;;;;6.38;3.75;;;3.20;99.90;;;;;;5017471;28;20058;-89
2022/03/06 09:27:13;;;;;;;7.78;3.85;;;3.30;99.90;;;;;;4986669;28;20050;-89
2022/03/06 09:29:38;;;;;;;8.45;4.47;;;3.30;99.90;;;;;;4984785;28;20065;-88
2022/03/06 09:32:04;;;;;;;7.68;4.28;;;3.30;99.90;;;;;;4987678;28;20093;-90
2022/03/06 09:34:30;;;;;;;13.60;4.50;;;3.40;99.90;;;;;;4992178;28;20222;-89
2022/03/06 09:36:55;;;;;;;8.38;3.85;;;3.50;99.90;;;;;;4957699;28;20097;-90
2022/03/06 09:39:21;;;;;;;6.85;3.28;;;3.50;99.90;;;;;;4990193;28;20403;-89
2022/03/06 09:41:49;;;;;;;7.82;3.80;;;3.60;99.90;;;;;;4992011;28;20042;-88
2022/03/06 09:44:15;;;;;;;8.73;4.30;;;3.70;99.90;;;;;;4992335;28;20373;-88
2022/03/06 09:46:41;;;;;;;7.07;3.60;;;3.80;99.90;;;;;;4988367;28;20046;-90
2022/03/06 09:49:08;;;;;;;8.27;3.70;;;3.80;99.90;;;;;;4981306;28;20101;-89
2022/03/06 09:51:35;;;;;;;8.25;3.90;;;3.90;99.90;;;;;;4984267;28;20110;-89
2022/03/06 09:54:01;;;;;;;7.97;4.15;;;3.90;99.90;;;;;;4961596;28;20131;-89
2022/03/06 09:56:27;;;;;;;7.13;4.07;;;4.00;99.90;;;;;;4950828;28;20190;-90
2022/03/06 09:58:52;;;;;;;8.20;3.95;;;4.00;99.90;;;;;;4991271;28;20050;-90
2022/03/06 10:01:18;;;;;;;8.43;4.03;;;4.00;99.90;;;;;;5019394;28;20128;-88
2022/03/06 10:03:44;;;;;;;7.07;4.20;;;4.00;99.90;;;;;;4994462;28;20046;-87
2022/03/06 10:06:11;;;;;;;6.28;3.50;;;4.10;99.90;;;;;;4988440;28;20043;-87
2022/03/06 10:08:37;;;;;;;8.45;3.75;;;4.10;99.90;;;;;;5005034;28;20076;-88
2022/03/06 10:11:07;;;;;;;8.80;3.80;;;4.20;99.90;;;;;;5010336;28;20045;-87
2022/03/06 10:13:38;;;;;;;7.32;3.97;;;4.20;99.60;;;;;;5002557;28;20046;-89
2022/03/06 10:16:06;;;;;;;7.55;3.92;;;4.20;92.10;;;;;;4976514;28;20068;-87
2022/03/06 10:18:35;;;;;;;7.03;3.53;;;4.20;92.50;;;;;;4996216;28;20050;-89
2022/03/06 10:21:11;;;;;;;7.82;3.65;;;4.30;96.20;;;;;;5027177;28;20112;-89
2022/03/06 10:23:37;;;;;;;6.90;3.60;;;4.40;87.70;;;;;;5006130;28;20108;-88
2022/03/06 10:26:08;;;;;;;6.70;3.40;;;4.30;90.90;;;;;;4991985;28;20046;-90
2022/03/06 10:28:46;;;;;;;7.50;3.45;;;4.40;90.60;;;;;;5005989;28;20387;-88
2022/03/06 10:31:13;;;;;;;6.80;3.65;;;4.30;79.00;;;;;;4995214;28;20499;-87
2022/03/06 10:33:38;;;;;;;7.88;3.92;;;4.40;83.10;;;;;;4992816;28;20034;-88
2022/03/06 10:36:07;;;;;;;7.43;3.55;;;4.50;85.40;;;;;;5015433;28;20041;-88
2022/03/06 10:38:34;;;;;;;8.00;3.80;;;4.60;81.50;;;;;;4987636;28;20304;-88
2022/03/06 10:41:12;;;;;;;6.47;3.47;;;4.60;76.60;;;;;;4996618;28;20096;-88
2022/03/06 10:43:38;;;;;;;8.88;3.78;;;4.60;75.00;;;;;;4990196;28;20447;-93
2022/03/06 10:46:16;;;;;;;8.48;4.10;;;4.70;78.80;;;;;;4986528;28;20038;-87
2022/03/06 10:49:01;;;;;;;7.70;3.67;;;4.80;76.90;;;;;;4994016;28;20131;-91
2022/03/06 10:51:27;;;;;;;7.32;3.70;;;4.80;73.80;;;;;;5004099;28;20042;-90
2022/03/06 10:53:58;;;;;;;8.23;3.60;;;4.90;76.20;;;;;;5000929;28;20034;-89
2022/03/06 10:56:25;;;;;;;6.83;3.77;;;4.90;76.90;;;;;;4986687;28;20034;-90
2022/03/06 10:58:51;;;;;;;6.90;3.25;;;4.90;76.80;;;;;;4993394;28;20293;-89
2022/03/06 11:01:17;;;;;;;7.22;3.30;;;5.00;73.50;;;;;;4991709;28;20078;-88
2022/03/06 11:03:43;;;;;;;7.05;3.60;;;5.10;75.90;;;;;;5008461;28;20101;-90
2022/03/06 11:06:10;;;;;;;6.13;2.90;;;5.20;76.70;;;;;;4974892;28;20106;-89
2022/03/06 11:08:37;;;;;;;6.57;3.75;;;5.20;73.70;;;;;;4977172;28;20050;-89
2022/03/06 11:11:05;;;;;;;8.20;3.40;;;5.20;69.30;;;;;;4977684;28;20054;-89
2022/03/06 11:13:31;;;;;;;7.82;3.28;;;5.20;73.70;;;;;;4972666;28;20081;-90
2022/03/06 11:15:58;;;;;;;6.05;3.75;;;5.20;70.30;;;;;;5005080;28;20049;-92
2022/03/06 11:18:25;;;;;;;6.60;3.40;;;5.20;70.00;;;;;;4988447;28;20050;-90
2022/03/06 11:20:53;;;;;;;5.90;3.30;;;5.30;69.60;;;;;;4964723;28;20022;-90
2022/03/06 11:23:38;;;;;;;8.63;3.53;;;5.40;71.70;;;;;;4975637;28;20050;-90
2022/03/06 11:26:14;;;;;;;6.30;3.17;;;5.50;69.50;;;;;;4968372;28;20403;-92
2022/03/06 11:29:04;;;;;;;7.63;3.35;;;5.40;68.40;;;;;;4973666;28;20141;-92
2022/03/06 11:31:43;;;;;;;6.43;3.58;;;5.50;68.50;;;;;;4983214;28;20070;-89
2022/03/06 11:34:09;;;;;;;7.18;3.28;;;5.50;68.00;;;;;;5016310;28;20050;-89
2022/03/06 11:36:45;;;;;;;6.82;3.33;;;5.50;69.10;;;;;;4997677;28;20042;-89
2022/03/06 11:39:13;;;;;;;6.25;3.50;;;5.50;69.30;;;;;;4988675;28;20062;-87
2022/03/06 11:41:39;;;;;;;6.68;3.90;;;5.50;71.00;;;;;;4979521;28;20065;-86
2022/03/06 11:44:32;;;;;;;6.50;3.40;;;5.60;70.10;;;;;;4962885;28;20043;-88
2022/03/06 11:46:57;;;;;;;6.45;3.50;;;5.60;69.40;;;;;;4980058;28;20121;-87
2022/03/06 11:49:33;;;;;;;6.85;3.22;;;5.60;70.10;;;;;;4977089;28;20125;-92
2022/03/06 11:51:58;;;;;;;6.55;3.38;;;5.70;71.00;;;;;;4989206;28;20046;-90
2022/03/06 11:54:24;;;;;;;8.48;4.03;;;5.70;71.60;;;;;;4980471;28;20038;-87
2022/03/06 11:56:53;;;;;;;7.65;3.53;;;5.80;70.50;;;;;;4984271;28;20043;-86
2022/03/06 11:59:32;;;;;;;8.70;3.60;;;5.80;67.40;;;;;;4990690;28;20058;-87
2022/03/06 12:02:03;;;;;;;7.20;3.50;;;5.80;69.70;;;;;;5023477;28;20058;-88
2022/03/06 12:04:33;;;;;;;7.53;3.63;;;5.80;70.00;;;;;;5022050;28;20064;-87
2022/03/06 12:07:04;;;;;;;8.15;4.38;;;5.80;70.70;;;;;;5001441;28;20037;-87
2022/03/06 12:09:38;;;;;;;8.23;5.10;;;5.80;70.60;;;;;;5005132;28;20167;-88
2022/03/06 12:12:15;;;;;;;7.10;3.97;;;5.90;71.30;;;;;;5012188;28;20056;-86
2022/03/06 12:14:44;;;;;;;7.82;4.07;;;5.90;70.60;;;;;;4996977;28;20049;-87
2022/03/06 12:17:12;;;;;;;6.57;3.85;;;6.00;71.70;;;;;;4996109;28;20156;-87
2022/03/06 12:19:44;;;;;;;7.70;3.80;;;6.10;71.50;;;;;;5007358;28;20410;-86
2022/03/06 12:22:19;;;;;;;6.90;3.95;;;6.00;68.20;;;;;;5004456;28;20391;-86
2022/03/06 12:24:49;;;;;;;7.78;3.88;;;6.00;70.30;;;;;;4990840;28;20045;-84
2022/03/06 12:27:25;;;;;;;8.40;4.20;;;6.00;70.50;;;;;;5010467;28;20049;-89
2022/03/06 12:29:55;;;;;;;7.40;3.78;;;6.00;69.00;;;;;;5002111;28;20427;-86
2022/03/06 12:32:27;;;;;;;10.45;5.90;;;6.00;69.60;;;;;;5016180;28;20041;-85
2022/03/06 12:34:56;;;;;;;8.45;3.60;;;6.10;70.20;;;;;;5015081;28;20049;-86
2022/03/06 12:37:23;;;;;;;8.05;4.28;;;6.20;69.10;;;;;;5011856;28;20315;-87
2022/03/06 12:39:49;;;;;;;7.93;4.10;;;6.30;70.40;;;;;;5028385;28;20048;-86
2022/03/06 12:42:26;;;;;;;8.23;4.53;;;6.40;69.20;;;;;;4994927;28;20038;-86